Time;durP1;ratioP1;P1;durP2;ratioP2;P2;SDS_P1;SDS_P2;PMS_P1;PMS_P2;Temp;Humidity;BMP_temperature;BMP_pressure;BME280_temperature;BME280_humidity;BME280_pressure;Samples;Min_cycle;Max_cycle;Signal;HPM_P1;HPM_P2
2022/01/20 00:03:18;;;;;;;14.63;3.83;;;6.80;94.20;;;;;;5158230;27;20173;-84
2022/01/20 00:08:35;;;;;;;20.77;4.67;;;6.80;95.20;;;;;;5171636;27;20153;-82
2022/01/20 00:27:33;;;;;;;17.73;3.27;;;6.60;94.20;;;;;;5176198;27;20204;-84
2022/01/20 00:30:29;;;;;;;9.83;2.80;;;6.70;94.00;;;;;;5159399;27;20209;-84
2022/01/20 00:33:13;;;;;;;11.57;3.00;;;6.70;93.30;;;;;;5159069;27;20640;-85
2022/01/20 00:38:17;;;;;;;9.77;2.80;;;6.60;93.60;;;;;;5156987;27;20667;-83
2022/01/20 00:40:43;;;;;;;12.87;2.43;;;6.60;93.60;;;;;;5137460;27;20170;-83
2022/01/20 00:43:09;;;;;;;16.97;3.57;;;6.70;93.40;;;;;;5137442;27;20169;-84
2022/01/20 00:45:35;;;;;;;9.43;2.50;;;6.90;93.40;;;;;;5136480;27;20222;-84
2022/01/20 00:48:00;;;;;;;11.03;2.80;;;6.60;93.40;;;;;;5137330;27;20162;-83
2022/01/20 00:50:26;;;;;;;12.47;3.20;;;6.70;93.30;;;;;;5156086;27;20204;-84
2022/01/20 00:52:52;;;;;;;11.90;3.37;;;6.80;93.30;;;;;;5155605;27;20213;-82
2022/01/20 00:55:19;;;;;;;12.40;3.50;;;6.70;93.50;;;;;;5155565;27;20621;-83
2022/01/20 00:57:44;;;;;;;15.60;3.50;;;6.70;94.00;;;;;;5154444;27;20197;-84
2022/01/20 01:00:13;;;;;;;10.97;2.90;;;6.80;95.00;;;;;;5153679;27;20261;-83
2022/01/20 01:02:40;;;;;;;13.07;3.47;;;6.60;95.10;;;;;;5154492;27;20169;-84
2022/01/20 01:05:08;;;;;;;17.93;3.40;;;6.40;95.80;;;;;;5153830;27;20182;-84
2022/01/20 01:07:48;;;;;;;11.63;3.57;;;6.50;96.40;;;;;;5154534;27;20208;-83
2022/01/20 01:10:22;;;;;;;16.00;3.13;;;6.50;96.50;;;;;;5155923;27;20197;-84
2022/01/20 01:12:55;;;;;;;14.27;4.03;;;6.60;96.10;;;;;;5153941;27;20257;-83
2022/01/20 01:15:32;;;;;;;14.33;4.23;;;6.50;96.10;;;;;;5157915;27;20582;-83
2022/01/20 01:23:11;;;;;;;13.30;4.00;;;6.40;97.10;;;;;;5184806;27;20188;-81
2022/01/20 01:25:40;;;;;;;10.07;3.77;;;6.30;97.30;;;;;;5160870;27;20169;-82
2022/01/20 01:28:06;;;;;;;16.17;4.60;;;6.30;97.90;;;;;;5158112;27;20193;-84
2022/01/20 01:31:03;;;;;;;16.57;4.30;;;6.50;97.70;;;;;;5175886;27;20212;-84
2022/01/20 01:33:18;;;;;;;17.17;5.13;;;6.30;97.80;;;;;;5195739;27;20172;-83
2022/01/20 01:35:54;;;;;;;20.70;5.27;;;6.50;97.90;;;;;;5177921;27;20228;-84
2022/01/20 01:38:25;;;;;;;14.67;4.20;;;6.40;97.50;;;;;;5177231;27;20168;-83
2022/01/20 01:40:54;;;;;;;18.00;3.73;;;6.40;97.40;;;;;;5165977;27;20512;-81
2022/01/20 01:43:26;;;;;;;20.33;4.13;;;6.30;97.90;;;;;;5165443;27;20191;-80
2022/01/20 01:45:52;;;;;;;13.20;3.70;;;6.30;98.10;;;;;;5141950;27;20185;-83
2022/01/20 01:48:17;;;;;;;17.60;3.43;;;6.40;98.00;;;;;;5136676;27;20166;-84
2022/01/20 01:50:43;;;;;;;17.17;3.73;;;6.40;97.60;;;;;;5138871;27;20637;-84
2022/01/20 01:53:09;;;;;;;19.73;5.23;;;6.40;97.80;;;;;;5156971;27;20224;-81
2022/01/20 01:55:36;;;;;;;16.30;3.93;;;6.40;98.00;;;;;;5136684;27;20621;-83
2022/01/20 01:58:01;;;;;;;13.80;3.37;;;6.40;97.90;;;;;;5155468;27;20158;-83
2022/01/20 02:00:30;;;;;;;15.70;4.10;;;6.30;98.20;;;;;;5137052;27;20170;-84
2022/01/20 02:02:56;;;;;;;15.17;3.60;;;6.30;98.40;;;;;;5136670;27;20184;-83
2022/01/20 02:05:23;;;;;;;14.10;3.33;;;6.30;99.10;;;;;;5135671;27;20197;-83
2022/01/20 02:18:52;;;;;;;9.83;2.80;;;6.40;98.90;;;;;;5155064;27;20173;-85
2022/01/20 02:21:18;;;;;;;12.43;3.90;;;6.30;98.60;;;;;;5136199;27;20181;-83
2022/01/20 02:23:45;;;;;;;10.53;2.80;;;6.50;98.80;;;;;;5136560;27;20618;-82
2022/01/20 02:26:11;;;;;;;13.17;3.43;;;6.30;98.40;;;;;;5155030;27;20396;-81
2022/01/20 02:28:37;;;;;;;17.77;3.30;;;6.40;98.20;;;;;;5136959;27;20662;-83
2022/01/20 02:31:03;;;;;;;16.43;3.43;;;6.50;98.00;;;;;;5155430;27;20617;-83
2022/01/20 02:33:30;;;;;;;16.57;3.23;;;6.50;97.60;;;;;;5155237;27;20177;-83
2022/01/20 02:35:59;;;;;;;10.50;2.80;;;6.50;97.40;;;;;;5148417;27;20174;-82
2022/01/20 02:38:33;;;;;;;11.13;3.17;;;6.50;97.20;;;;;;5139202;27;20174;-81
2022/01/20 02:46:31;;;;;;;10.63;2.67;;;6.30;97.80;;;;;;5173466;27;20215;-82
2022/01/20 02:48:57;;;;;;;13.70;3.70;;;6.20;97.60;;;;;;5158887;27;20205;-81
2022/01/20 02:51:23;;;;;;;11.50;2.47;;;6.30;97.40;;;;;;5158694;27;20184;-81
2022/01/20 02:53:52;;;;;;;8.70;2.50;;;6.30;97.10;;;;;;5156387;27;20261;-82
2022/01/20 02:56:26;;;;;;;11.87;2.97;;;6.40;96.60;;;;;;5160073;27;20612;-82
2022/01/20 02:58:51;;;;;;;11.37;2.60;;;6.40;96.60;;;;;;5140119;27;20543;-81
2022/01/20 03:01:17;;;;;;;9.80;2.40;;;6.40;96.10;;;;;;5158518;27;20157;-83
2022/01/20 03:03:42;;;;;;;8.80;2.30;;;6.50;96.00;;;;;;5147362;27;20161;-82
2022/01/20 03:06:08;;;;;;;8.80;2.10;;;6.40;95.70;;;;;;5182732;27;20189;-82
2022/01/20 03:08:34;;;;;;;8.57;2.20;;;6.50;95.30;;;;;;5147100;27;20201;-83
2022/01/20 03:11:03;;;;;;;6.30;2.10;;;6.40;95.10;;;;;;5141437;27;20173;-82
2022/01/20 03:13:43;;;;;;;8.07;2.20;;;6.50;95.30;;;;;;5151893;27;20166;-81
2022/01/20 03:16:08;;;;;;;5.87;1.73;;;6.50;95.10;;;;;;5144910;27;20177;-83
2022/01/20 03:18:34;;;;;;;9.13;2.30;;;6.60;94.60;;;;;;5171013;27;20198;-83
2022/01/20 03:21:00;;;;;;;8.90;2.20;;;6.40;94.50;;;;;;5139794;27;20170;-82
2022/01/20 03:23:25;;;;;;;6.73;1.63;;;6.30;95.30;;;;;;5144485;27;20186;-82
2022/01/20 03:25:51;;;;;;;6.20;1.57;;;6.30;95.90;;;;;;5177328;27;20169;-81
2022/01/20 03:28:18;;;;;;;5.83;1.83;;;6.30;95.60;;;;;;5139453;27;20173;-81
2022/01/20 03:30:44;;;;;;;8.67;2.17;;;6.30;96.10;;;;;;5139318;27;20169;-82
2022/01/20 03:33:09;;;;;;;5.47;2.40;;;6.10;97.00;;;;;;5157466;27;20241;-81
2022/01/20 03:35:35;;;;;;;7.77;2.50;;;5.90;98.30;;;;;;5139310;27;20182;-82
2022/01/20 03:38:01;;;;;;;8.77;2.40;;;5.90;98.90;;;;;;5162860;27;20146;-80
2022/01/20 03:40:27;;;;;;;6.80;2.47;;;5.80;99.10;;;;;;5162610;27;20172;-82
2022/01/20 03:42:52;;;;;;;8.17;2.20;;;5.90;99.70;;;;;;5159380;27;20534;-82
2022/01/20 03:45:24;;;;;;;10.17;2.40;;;5.90;99.80;;;;;;5157647;27;20636;-82
2022/01/20 03:47:51;;;;;;;11.43;3.27;;;6.00;99.60;;;;;;5138469;27;20239;-82
2022/01/20 03:53:01;;;;;;;7.87;2.00;;;5.80;99.10;;;;;;5156896;27;20192;-82
2022/01/20 03:55:27;;;;;;;7.97;3.13;;;6.10;99.20;;;;;;5157204;27;20173;-83
2022/01/20 03:57:53;;;;;;;8.03;2.67;;;6.30;99.00;;;;;;5155098;27;20585;-82
2022/01/20 04:00:19;;;;;;;6.37;2.30;;;6.30;98.20;;;;;;5155681;27;20223;-81
2022/01/20 04:02:45;;;;;;;7.33;2.70;;;6.50;98.20;;;;;;5154770;27;20170;-82
2022/01/20 04:05:10;;;;;;;6.63;2.80;;;6.20;97.90;;;;;;5154983;27;20219;-82
2022/01/20 04:07:36;;;;;;;8.27;2.57;;;6.20;98.20;;;;;;5155785;27;20242;-82
2022/01/20 04:10:01;;;;;;;5.23;2.03;;;6.30;98.50;;;;;;5155712;27;20209;-82
2022/01/20 04:12:27;;;;;;;10.87;2.80;;;6.30;98.40;;;;;;5155619;27;20176;-81
2022/01/20 04:14:53;;;;;;;8.03;2.53;;;6.20;98.20;;;;;;5155221;27;20197;-80
2022/01/20 04:17:20;;;;;;;8.83;2.83;;;6.20;98.20;;;;;;5155259;27;20174;-82
2022/01/20 04:19:46;;;;;;;9.33;2.97;;;6.10;98.30;;;;;;5157321;27;20183;-82
2022/01/20 04:22:12;;;;;;;8.17;2.90;;;6.00;98.50;;;;;;5155271;27;20694;-80
2022/01/20 04:24:38;;;;;;;10.00;2.67;;;6.10;98.80;;;;;;5154749;27;20254;-84
2022/01/20 04:27:05;;;;;;;8.20;2.77;;;6.30;98.40;;;;;;5156353;27;20189;-82
2022/01/20 04:29:32;;;;;;;16.30;3.87;;;6.10;98.30;;;;;;5155066;27;20208;-82
2022/01/20 04:31:58;;;;;;;10.93;3.13;;;6.20;98.30;;;;;;5155213;27;20265;-82
2022/01/20 04:34:24;;;;;;;9.27;3.00;;;6.20;98.40;;;;;;5154684;27;20270;-82
2022/01/20 04:36:52;;;;;;;13.40;3.47;;;6.20;98.00;;;;;;5156027;27;20258;-83
2022/01/20 04:39:22;;;;;;;9.13;3.63;;;6.30;98.00;;;;;;5157792;27;20173;-81
2022/01/20 04:41:50;;;;;;;11.20;3.70;;;6.30;98.00;;;;;;5138325;27;20184;-82
2022/01/20 04:44:36;;;;;;;12.17;3.43;;;6.10;98.70;;;;;;5155871;27;20177;-82
2022/01/20 04:57:43;;;;;;;12.23;4.23;;;6.10;98.50;;;;;;5154873;27;20172;-82
2022/01/20 05:00:10;;;;;;;13.10;3.80;;;6.20;98.40;;;;;;5153187;27;20173;-82
2022/01/20 05:02:36;;;;;;;8.37;3.30;;;6.10;98.30;;;;;;5152386;27;20173;-83
2022/01/20 05:05:02;;;;;;;9.23;3.40;;;6.10;98.30;;;;;;5137725;27;20546;-83
2022/01/20 05:07:29;;;;;;;7.13;2.87;;;6.00;98.60;;;;;;5139457;27;20174;-85
2022/01/20 05:09:56;;;;;;;9.43;3.20;;;5.90;98.70;;;;;;5138193;27;20611;-84
2022/01/20 05:12:29;;;;;;;15.83;3.10;;;5.90;99.20;;;;;;5138493;27;20191;-83
2022/01/20 05:14:56;;;;;;;11.73;3.30;;;5.90;99.50;;;;;;5157548;27;20172;-82
2022/01/20 05:17:22;;;;;;;6.93;2.90;;;5.80;99.50;;;;;;5159118;27;20162;-83
2022/01/20 05:19:48;;;;;;;13.77;3.33;;;5.80;99.80;;;;;;5175915;27;20199;-83
2022/01/20 05:22:13;;;;;;;13.73;3.27;;;5.90;99.90;;;;;;5164915;27;20169;-82
2022/01/20 05:24:39;;;;;;;10.27;2.90;;;5.90;99.80;;;;;;5172425;27;20241;-81
2022/01/20 05:27:07;;;;;;;14.13;3.67;;;5.90;99.90;;;;;;5166780;27;20157;-82
2022/01/20 05:29:36;;;;;;;11.00;3.33;;;5.90;99.90;;;;;;5165529;27;20197;-81
2022/01/20 05:32:03;;;;;;;12.00;3.40;;;5.90;99.90;;;;;;5159464;27;20165;-82
2022/01/20 05:34:29;;;;;;;14.47;4.00;;;5.80;99.90;;;;;;5167914;27;20185;-82
2022/01/20 05:36:55;;;;;;;11.93;3.77;;;5.80;99.90;;;;;;5176831;27;20175;-82
2022/01/20 05:39:20;;;;;;;9.40;3.63;;;5.90;99.90;;;;;;5173973;27;20162;-81
2022/01/20 05:41:46;;;;;;;13.33;3.93;;;5.90;99.90;;;;;;5167882;27;20238;-83
2022/01/20 05:44:17;;;;;;;9.53;3.30;;;5.80;99.90;;;;;;5156816;27;20249;-83
2022/01/20 05:46:48;;;;;;;9.90;3.13;;;5.80;99.90;;;;;;5154578;27;20192;-83
2022/01/20 05:49:20;;;;;;;11.90;3.47;;;5.80;99.90;;;;;;5154128;27;20664;-83
2022/01/20 05:51:48;;;;;;;12.43;3.83;;;5.80;99.90;;;;;;5154146;27;20173;-81
2022/01/20 05:54:14;;;;;;;13.07;3.57;;;5.90;99.90;;;;;;5154477;27;20293;-82
2022/01/20 05:56:39;;;;;;;12.03;3.60;;;5.90;99.80;;;;;;5155807;27;20655;-83
2022/01/20 05:59:05;;;;;;;12.07;3.27;;;5.90;99.60;;;;;;5155701;27;20168;-81
2022/01/20 06:01:32;;;;;;;11.23;3.57;;;5.80;99.90;;;;;;5155198;27;20169;-81
2022/01/20 06:03:58;;;;;;;17.40;4.00;;;5.90;99.90;;;;;;5136163;27;20177;-82
2022/01/20 06:06:24;;;;;;;15.83;4.13;;;5.90;99.90;;;;;;5154660;27;20200;-81
2022/01/20 06:08:51;;;;;;;11.90;3.83;;;5.90;99.90;;;;;;5136577;27;20749;-83
2022/01/20 06:11:16;;;;;;;11.97;3.47;;;5.90;99.90;;;;;;5136970;27;20211;-83
2022/01/20 06:13:42;;;;;;;13.97;4.17;;;5.90;99.90;;;;;;5136852;27;20169;-83
2022/01/20 06:16:09;;;;;;;15.13;4.40;;;5.70;99.90;;;;;;5155445;27;20168;-84
2022/01/20 06:18:35;;;;;;;14.60;3.70;;;5.90;99.90;;;;;;5155630;27;20211;-82
2022/01/20 06:21:01;;;;;;;12.90;4.03;;;5.90;99.90;;;;;;5155598;27;20162;-82
2022/01/20 06:23:28;;;;;;;12.63;3.90;;;6.00;99.60;;;;;;5135753;27;20728;-82
2022/01/20 06:25:54;;;;;;;17.47;4.00;;;5.90;99.90;;;;;;5156461;27;20217;-81
2022/01/20 06:28:20;;;;;;;13.97;3.93;;;6.00;99.90;;;;;;5140776;27;20595;-83
2022/01/20 06:30:46;;;;;;;13.67;3.50;;;5.90;99.90;;;;;;5159672;27;20169;-82
2022/01/20 06:33:12;;;;;;;8.83;2.87;;;5.90;99.90;;;;;;5158913;27;20173;-83
2022/01/20 06:35:38;;;;;;;12.03;3.70;;;5.80;99.90;;;;;;5141800;27;20189;-83
2022/01/20 06:38:04;;;;;;;7.10;2.60;;;5.80;99.90;;;;;;5159461;27;20165;-83
2022/01/20 06:40:31;;;;;;;14.67;3.10;;;5.80;99.90;;;;;;5140785;27;20170;-81
2022/01/20 06:42:59;;;;;;;13.50;3.17;;;5.80;99.90;;;;;;5160615;27;20260;-83
2022/01/20 06:45:25;;;;;;;10.80;2.50;;;5.90;99.90;;;;;;5142082;27;20180;-84
2022/01/20 06:47:51;;;;;;;12.73;2.57;;;6.00;99.90;;;;;;5155579;27;20222;-83
2022/01/20 06:50:17;;;;;;;8.37;2.40;;;6.00;99.90;;;;;;5124322;27;20220;-82
2022/01/20 06:52:43;;;;;;;9.33;2.50;;;5.90;99.90;;;;;;5120889;27;20208;-80
2022/01/20 06:55:11;;;;;;;13.57;3.03;;;5.80;99.90;;;;;;5121682;27;20181;-84
2022/01/20 06:57:39;;;;;;;12.87;2.40;;;5.80;99.90;;;;;;5148731;27;20261;-84
2022/01/20 07:00:08;;;;;;;9.53;2.10;;;5.80;99.90;;;;;;5163266;27;20166;-84
2022/01/20 07:02:35;;;;;;;11.87;2.80;;;5.70;99.90;;;;;;5143179;27;20161;-84
2022/01/20 07:05:01;;;;;;;9.17;2.73;;;5.70;99.90;;;;;;5159947;27;20181;-81
2022/01/20 07:07:29;;;;;;;12.13;2.80;;;5.80;99.90;;;;;;5122053;27;20284;-82
2022/01/20 07:09:54;;;;;;;8.83;2.73;;;5.70;99.90;;;;;;5140660;27;20261;-82
2022/01/20 07:12:20;;;;;;;10.53;2.90;;;5.60;99.90;;;;;;5158164;27;20162;-82
2022/01/20 07:14:46;;;;;;;9.47;2.30;;;5.70;99.90;;;;;;5159629;27;20667;-83
2022/01/20 07:17:11;;;;;;;11.37;2.30;;;5.80;99.90;;;;;;5158930;27;20187;-81
2022/01/20 07:19:37;;;;;;;7.23;2.27;;;5.70;99.70;;;;;;5140047;27;20177;-83
2022/01/20 07:22:03;;;;;;;9.03;2.13;;;5.70;99.30;;;;;;5142780;27;20184;-83
2022/01/20 07:24:30;;;;;;;9.63;2.70;;;5.70;98.90;;;;;;5162085;27;20249;-83
2022/01/20 07:26:57;;;;;;;11.87;2.67;;;5.80;99.00;;;;;;5163993;27;20161;-86
2022/01/20 07:29:23;;;;;;;9.93;2.30;;;5.90;98.80;;;;;;5144335;27;20245;-85
2022/01/20 07:31:49;;;;;;;10.87;2.47;;;5.80;98.80;;;;;;5146357;27;20205;-83
2022/01/20 07:34:14;;;;;;;8.07;2.00;;;5.70;99.20;;;;;;5145484;27;20181;-82
2022/01/20 07:36:40;;;;;;;4.50;1.90;;;5.70;99.40;;;;;;5164024;27;20182;-82
2022/01/20 07:39:05;;;;;;;9.00;2.00;;;5.60;99.90;;;;;;5146843;27;20202;-83
2022/01/20 07:41:32;;;;;;;10.30;2.60;;;5.70;99.90;;;;;;5144300;27;20174;-82
2022/01/20 07:43:58;;;;;;;9.20;2.70;;;5.80;99.90;;;;;;5149962;27;20174;-80
2022/01/20 07:46:24;;;;;;;11.90;2.40;;;5.80;99.30;;;;;;5144696;27;20514;-82
2022/01/20 07:48:49;;;;;;;8.97;2.33;;;5.70;99.70;;;;;;5151017;27;20209;-78
2022/01/20 07:51:16;;;;;;;9.27;2.10;;;5.70;99.60;;;;;;5164750;27;20174;-84
2022/01/20 07:53:41;;;;;;;8.50;2.17;;;5.90;99.60;;;;;;5142888;27;20193;-85
2022/01/20 07:56:07;;;;;;;10.40;2.67;;;6.00;99.50;;;;;;5164617;27;20182;-84
2022/01/20 07:58:34;;;;;;;11.07;2.83;;;5.90;99.30;;;;;;5176434;27;20169;-83
2022/01/20 08:01:00;;;;;;;10.60;2.30;;;6.00;99.40;;;;;;5178164;27;20203;-82
2022/01/20 08:03:26;;;;;;;14.00;2.93;;;5.90;98.80;;;;;;5156421;27;20166;-81
2022/01/20 08:05:53;;;;;;;9.30;2.60;;;5.80;99.10;;;;;;5156517;27;20214;-81
2022/01/20 08:08:22;;;;;;;12.33;3.03;;;5.80;99.40;;;;;;5158917;27;20181;-82
2022/01/20 08:10:49;;;;;;;13.27;3.00;;;5.80;98.90;;;;;;5178408;27;20262;-82
2022/01/20 08:13:15;;;;;;;9.90;3.60;;;5.80;98.60;;;;;;5160100;27;20197;-83
2022/01/20 08:15:54;;;;;;;12.77;3.30;;;5.80;98.30;;;;;;5173249;27;20177;-81
2022/01/20 08:18:23;;;;;;;26.30;11.93;;;5.80;98.60;;;;;;5153476;27;20165;-83
2022/01/20 08:21:13;;;;;;;25.37;13.17;;;6.00;98.30;;;;;;5166705;27;20169;-83
2022/01/20 08:23:41;;;;;;;24.73;9.13;;;6.00;97.90;;;;;;5148862;27;20222;-82
2022/01/20 08:26:18;;;;;;;10.07;3.83;;;5.80;97.90;;;;;;5174334;27;20184;-82
2022/01/20 08:28:44;;;;;;;13.77;2.60;;;5.80;98.40;;;;;;5144285;27;20185;-82
2022/01/20 08:31:12;;;;;;;15.30;3.77;;;5.80;98.40;;;;;;5145416;27;20169;-81
2022/01/20 08:33:37;;;;;;;17.00;6.07;;;5.80;98.80;;;;;;5157412;27;20166;-81
2022/01/20 08:36:09;;;;;;;11.67;3.33;;;5.90;99.10;;;;;;5138193;27;20226;-81
2022/01/20 08:38:35;;;;;;;9.50;4.07;;;5.90;98.60;;;;;;5155986;27;20158;-83
2022/01/20 08:41:01;;;;;;;13.23;4.80;;;5.90;97.80;;;;;;5139303;27;20274;-83
2022/01/20 08:43:28;;;;;;;14.77;4.20;;;6.10;97.90;;;;;;5156766;27;20637;-84
2022/01/20 08:45:54;;;;;;;10.97;3.33;;;6.10;97.40;;;;;;5138490;27;20176;-83
2022/01/20 08:48:20;;;;;;;11.80;3.10;;;6.10;97.10;;;;;;5137642;27;20173;-83
2022/01/20 08:50:45;;;;;;;14.50;3.17;;;6.10;97.80;;;;;;5137841;27;20259;-84
2022/01/20 08:53:12;;;;;;;10.87;3.07;;;6.20;96.80;;;;;;5157159;27;20665;-85
2022/01/20 08:55:38;;;;;;;16.00;3.60;;;6.30;96.80;;;;;;5155902;27;20598;-84
2022/01/20 08:58:05;;;;;;;12.50;3.13;;;6.40;96.90;;;;;;5137026;27;20212;-82
2022/01/20 09:00:34;;;;;;;10.50;3.50;;;6.50;96.30;;;;;;5137960;27;20169;-81
2022/01/20 09:03:00;;;;;;;12.97;3.57;;;6.40;95.70;;;;;;5140875;27;20553;-84
2022/01/20 09:05:26;;;;;;;13.33;3.40;;;6.30;95.60;;;;;;5137990;27;20249;-82
2022/01/20 09:07:51;;;;;;;13.97;4.00;;;6.30;96.10;;;;;;5147187;27;20173;-81
2022/01/20 09:10:19;;;;;;;15.27;3.73;;;6.50;96.10;;;;;;5155464;27;20201;-81
2022/01/20 09:15:30;;;;;;;14.77;3.97;;;6.30;95.50;;;;;;5176425;27;20201;-81
2022/01/20 09:18:00;;;;;;;17.50;5.10;;;6.30;95.80;;;;;;5156385;27;20686;-80
2022/01/20 09:20:28;;;;;;;14.47;4.80;;;6.40;96.20;;;;;;5143444;27;20169;-83
2022/01/20 09:22:55;;;;;;;18.87;7.07;;;6.40;95.60;;;;;;5138102;27;20257;-82
2022/01/20 09:25:24;;;;;;;13.90;4.70;;;6.30;95.80;;;;;;5138240;27;20233;-83
2022/01/20 09:27:51;;;;;;;16.50;4.37;;;6.50;96.20;;;;;;5137586;27;20544;-84
2022/01/20 09:30:21;;;;;;;18.10;4.07;;;6.50;95.80;;;;;;5138681;27;20651;-85
2022/01/20 09:32:58;;;;;;;13.40;3.90;;;6.60;94.40;;;;;;5140653;27;20177;-84
2022/01/20 09:35:31;;;;;;;15.03;3.50;;;6.70;93.50;;;;;;5140575;27;20192;-84
2022/01/20 09:37:59;;;;;;;17.50;4.37;;;6.70;92.60;;;;;;5139746;27;20625;-81
2022/01/20 09:40:25;;;;;;;15.97;4.27;;;6.70;92.00;;;;;;5138331;27;20509;-82
2022/01/20 09:42:51;;;;;;;17.27;4.60;;;6.70;91.70;;;;;;5137872;27;20199;-84
2022/01/20 09:45:17;;;;;;;23.07;5.60;;;6.70;90.50;;;;;;5138146;27;20169;-83
2022/01/20 09:47:45;;;;;;;18.40;5.77;;;6.60;89.80;;;;;;5142246;27;20261;-81
2022/01/20 09:50:20;;;;;;;24.00;7.43;;;6.60;88.40;;;;;;5156266;27;20691;-83
2022/01/20 09:52:47;;;;;;;17.83;6.43;;;6.40;88.20;;;;;;5138173;27;20192;-83
2022/01/20 09:55:13;;;;;;;18.00;6.27;;;6.30;86.30;;;;;;5138675;27;20173;-82
2022/01/20 09:57:39;;;;;;;21.77;5.90;;;6.30;87.70;;;;;;5137306;27;20209;-84
2022/01/20 10:00:09;;;;;;;19.80;4.47;;;6.30;90.00;;;;;;5156766;27;20180;-82
2022/01/20 10:02:35;;;;;;;14.60;4.93;;;6.20;88.70;;;;;;5144483;27;20684;-82
2022/01/20 10:05:01;;;;;;;17.87;4.80;;;6.30;88.30;;;;;;5166392;27;20221;-81
2022/01/20 10:07:34;;;;;;;12.10;3.20;;;6.30;86.60;;;;;;5159896;27;20165;-83
2022/01/20 10:10:01;;;;;;;20.03;4.40;;;6.30;85.70;;;;;;5136766;27;20238;-82
2022/01/20 10:12:29;;;;;;;11.00;4.00;;;6.10;85.70;;;;;;5167162;27;20158;-83
2022/01/20 10:14:56;;;;;;;15.30;4.83;;;6.10;88.00;;;;;;5151736;27;20170;-83
2022/01/20 10:17:31;;;;;;;12.27;3.67;;;6.20;87.90;;;;;;5141793;27;20205;-82
2022/01/20 10:20:01;;;;;;;15.53;5.03;;;6.30;86.80;;;;;;5152646;27;20259;-82
2022/01/20 10:22:28;;;;;;;13.37;3.60;;;6.30;86.60;;;;;;5141317;27;20166;-83
2022/01/20 10:25:11;;;;;;;16.67;4.83;;;6.30;86.20;;;;;;5140830;27;20175;-82
2022/01/20 10:27:48;;;;;;;14.20;3.37;;;6.30;85.00;;;;;;5141802;27;20184;-83
2022/01/20 10:30:15;;;;;;;11.40;3.37;;;6.30;82.50;;;;;;5142411;27;20205;-82
2022/01/20 10:32:47;;;;;;;10.37;2.97;;;6.20;84.80;;;;;;5140905;27;20602;-84
2022/01/20 10:35:15;;;;;;;15.47;3.67;;;6.30;83.40;;;;;;5140520;27;20300;-81
2022/01/20 10:38:00;;;;;;;18.67;4.27;;;6.40;82.20;;;;;;5157592;27;20222;-81
2022/01/20 10:40:27;;;;;;;13.47;3.53;;;6.50;80.90;;;;;;5158474;27;20578;-82
2022/01/20 10:42:53;;;;;;;13.23;3.97;;;6.50;78.80;;;;;;5158542;27;20170;-83
2022/01/20 10:45:25;;;;;;;13.23;4.20;;;6.60;76.40;;;;;;5160271;27;20637;-85
2022/01/20 10:48:00;;;;;;;12.57;3.07;;;6.60;73.70;;;;;;5158996;27;20540;-85
2022/01/20 10:50:35;;;;;;;11.60;3.00;;;6.60;72.90;;;;;;5163784;27;20229;-86
2022/01/20 10:53:01;;;;;;;13.97;3.03;;;6.60;70.80;;;;;;5153865;27;20192;-83
2022/01/20 10:55:33;;;;;;;13.13;3.37;;;6.60;70.30;;;;;;5144735;27;20178;-83
2022/01/20 10:58:22;;;;;;;13.03;3.70;;;6.70;70.20;;;;;;5136697;27;20170;-84
2022/01/20 11:00:51;;;;;;;12.17;3.70;;;6.60;64.10;;;;;;5174143;27;20235;-83
2022/01/20 11:03:17;;;;;;;6.77;2.10;;;6.70;66.40;;;;;;5136773;27;20238;-84
2022/01/20 11:05:48;;;;;;;14.07;3.30;;;6.60;56.40;;;;;;5158133;27;20201;-85
2022/01/20 11:08:14;;;;;;;13.33;3.90;;;6.60;58.70;;;;;;5152438;27;20645;-85
2022/01/20 11:10:42;;;;;;;7.50;2.03;;;6.70;61.00;;;;;;5172057;27;20237;-84
2022/01/20 11:13:10;;;;;;;10.53;2.77;;;6.80;61.70;;;;;;5176168;27;20173;-82
2022/01/20 11:15:40;;;;;;;10.83;2.03;;;6.70;65.20;;;;;;5163534;27;20265;-84
2022/01/20 11:18:09;;;;;;;8.13;2.50;;;6.40;70.60;;;;;;5147680;27;20177;-83
2022/01/20 11:20:46;;;;;;;8.93;2.07;;;6.30;75.00;;;;;;5142402;27;20165;-84
2022/01/20 11:23:12;;;;;;;9.80;2.30;;;6.20;79.50;;;;;;5159068;27;20277;-84
2022/01/20 11:25:41;;;;;;;9.50;3.00;;;6.30;81.00;;;;;;5141007;27;20684;-83
2022/01/20 11:28:12;;;;;;;9.53;2.63;;;6.40;79.20;;;;;;5159249;27;20217;-84
2022/01/20 11:30:42;;;;;;;10.27;2.70;;;6.60;79.10;;;;;;5142208;27;20205;-85
2022/01/20 11:33:11;;;;;;;11.50;3.03;;;6.60;78.30;;;;;;5134917;27;20541;-84
2022/01/20 11:35:42;;;;;;;8.67;2.63;;;6.70;73.00;;;;;;5156575;27;20181;-86
2022/01/20 11:38:09;;;;;;;14.13;4.70;;;6.70;70.70;;;;;;5159000;27;20621;-83
2022/01/20 11:40:49;;;;;;;9.00;3.33;;;6.70;71.40;;;;;;5138985;27;20177;-81
2022/01/20 11:43:15;;;;;;;13.40;3.77;;;6.80;71.20;;;;;;5139518;27;20183;-83
2022/01/20 11:45:46;;;;;;;11.57;2.80;;;6.60;71.70;;;;;;5158086;27;20260;-81
2022/01/20 11:48:12;;;;;;;10.47;2.57;;;6.50;75.10;;;;;;5139949;27;20618;-81
2022/01/20 11:50:38;;;;;;;11.57;2.47;;;6.40;81.50;;;;;;5158570;27;20205;-84
2022/01/20 11:53:18;;;;;;;5.50;2.27;;;6.30;82.80;;;;;;5140169;27;20181;-82
2022/01/20 11:55:54;;;;;;;8.40;2.30;;;6.20;81.50;;;;;;5141739;27;20179;-83
2022/01/20 11:58:23;;;;;;;14.63;2.37;;;6.10;82.10;;;;;;5145753;27;20173;-82
2022/01/20 12:01:08;;;;;;;12.30;3.73;;;6.10;81.70;;;;;;5165477;27;20173;-83
2022/01/20 12:03:36;;;;;;;10.80;2.97;;;6.20;72.10;;;;;;5145915;27;20190;-84
2022/01/20 12:06:08;;;;;;;15.53;3.40;;;6.30;71.60;;;;;;5145894;27;20304;-85
2022/01/20 12:08:34;;;;;;;9.73;2.10;;;6.40;72.00;;;;;;5145469;27;20527;-80
2022/01/20 12:11:09;;;;;;;7.50;2.20;;;6.50;57.20;;;;;;5145682;27;20178;-85
2022/01/20 12:13:49;;;;;;;7.53;1.80;;;6.50;53.90;;;;;;5150864;27;20361;-83
2022/01/20 12:16:33;;;;;;;10.43;1.90;;;6.50;51.80;;;;;;5146484;27;20184;-82
2022/01/20 12:19:01;;;;;;;9.60;2.97;;;6.50;51.30;;;;;;5164701;27;20174;-83
2022/01/20 12:21:32;;;;;;;11.10;3.43;;;6.60;51.90;;;;;;5128708;27;20177;-84
2022/01/20 12:23:59;;;;;;;11.20;2.20;;;6.60;47.50;;;;;;5157079;27;20158;-82
2022/01/20 12:26:25;;;;;;;10.73;2.27;;;6.70;48.60;;;;;;5136214;27;20225;-82
2022/01/20 12:29:20;;;;;;;9.90;2.73;;;6.80;45.70;;;;;;5158189;27;20189;-82
2022/01/20 12:31:49;;;;;;;9.60;2.40;;;6.90;47.60;;;;;;5143977;27;20209;-80
2022/01/20 12:34:16;;;;;;;14.40;2.00;;;6.40;57.70;;;;;;5160525;27;20177;-81
2022/01/20 12:36:50;;;;;;;7.90;2.70;;;6.10;69.00;;;;;;5176961;27;20165;-82
2022/01/20 12:39:26;;;;;;;8.67;2.13;;;5.90;75.30;;;;;;5144429;27;20168;-84
2022/01/20 12:42:08;;;;;;;10.07;2.17;;;5.80;81.30;;;;;;5165272;27;20174;-82
2022/01/20 12:47:41;;;;;;;12.70;3.40;;;5.60;81.30;;;;;;5068496;27;20173;-82
2022/01/20 12:50:08;;;;;;;8.67;2.40;;;5.60;82.80;;;;;;5159810;27;20220;-82
2022/01/20 12:52:33;;;;;;;8.70;2.27;;;5.60;84.90;;;;;;5143302;27;20176;-84
2022/01/20 12:55:00;;;;;;;12.60;2.50;;;5.50;87.30;;;;;;5143501;27;20185;-83
2022/01/20 12:57:26;;;;;;;6.80;2.07;;;5.70;88.80;;;;;;5160742;27;20258;-83
2022/01/20 12:59:54;;;;;;;7.83;2.73;;;5.70;89.60;;;;;;5161561;27;20173;-82
2022/01/20 13:02:24;;;;;;;9.50;3.10;;;5.90;88.40;;;;;;5145647;27;20169;-82
2022/01/20 13:04:58;;;;;;;6.10;2.30;;;6.00;86.80;;;;;;5165227;27;20173;-84
2022/01/20 13:07:24;;;;;;;11.37;3.73;;;6.10;85.60;;;;;;5144556;27;20170;-83
2022/01/20 13:10:00;;;;;;;9.37;3.03;;;6.10;83.50;;;;;;5146787;27;20292;-82
2022/01/20 13:12:41;;;;;;;14.40;2.53;;;6.10;81.30;;;;;;5146492;27;20275;-83
2022/01/20 13:15:16;;;;;;;7.53;2.50;;;6.10;79.30;;;;;;5143377;27;20200;-84
2022/01/20 13:17:42;;;;;;;9.13;2.13;;;6.10;79.50;;;;;;5143728;27;20173;-82
2022/01/20 13:20:22;;;;;;;10.93;2.80;;;6.20;76.10;;;;;;5144580;27;20176;-85
2022/01/20 13:23:08;;;;;;;13.73;2.40;;;6.30;78.00;;;;;;5143103;27;20189;-84
2022/01/20 13:25:39;;;;;;;12.13;2.20;;;6.30;71.10;;;;;;5142256;27;20169;-84
2022/01/20 13:28:08;;;;;;;7.30;2.30;;;6.40;70.30;;;;;;5143842;27;20234;-81
2022/01/20 13:30:40;;;;;;;8.63;2.33;;;6.70;71.80;;;;;;5143331;27;20233;-82
2022/01/20 13:33:20;;;;;;;11.40;3.63;;;6.70;69.80;;;;;;5155162;27;20165;-83
2022/01/20 13:35:52;;;;;;;12.47;4.10;;;6.80;62.40;;;;;;5153610;27;20188;-82
2022/01/20 13:38:18;;;;;;;13.17;3.00;;;6.90;54.30;;;;;;5147182;27;20181;-81
2022/01/20 13:40:47;;;;;;;10.33;3.87;;;6.90;52.60;;;;;;5165564;27;20150;-82
2022/01/20 13:46:04;;;;;;;6.57;2.23;;;7.00;40.60;;;;;;5170886;27;20173;-82
2022/01/20 13:48:34;;;;;;;8.50;2.70;;;7.10;35.40;;;;;;5154030;27;20180;-83
2022/01/20 13:51:03;;;;;;;10.83;2.97;;;7.00;33.60;;;;;;5155940;27;20599;-80
2022/01/20 13:53:34;;;;;;;12.70;4.13;;;7.10;35.40;;;;;;5150988;27;20197;-83
2022/01/20 13:56:09;;;;;;;8.17;2.77;;;7.00;37.00;;;;;;5145985;27;20188;-83
2022/01/20 13:58:38;;;;;;;8.57;2.90;;;7.10;38.40;;;;;;5140366;27;20682;-84
2022/01/20 14:01:08;;;;;;;7.60;1.73;;;6.90;49.50;;;;;;5139903;27;20188;-82
2022/01/20 14:03:36;;;;;;;5.90;2.07;;;6.30;72.20;;;;;;5145650;27;20195;-83
2022/01/20 14:06:02;;;;;;;8.73;2.00;;;5.70;84.40;;;;;;5167784;27;20196;-82